sensor_id;sensor_type;location;lat;lon;timestamp;P1;durP1;ratioP1;P2;durP2;ratioP2
74383;SDS011;62824;52.994;-3.936;2024-03-22T00:01:52;2.30;;;1.02;;
74383;SDS011;62824;52.994;-3.936;2024-03-22T00:04:18;2.42;;;0.85;;
74383;SDS011;62824;52.994;-3.936;2024-03-22T00:06:46;2.38;;;0.70;;
74383;SDS011;62824;52.994;-3.936;2024-03-22T00:09:13;1.95;;;0.88;;
74383;SDS011;62824;52.994;-3.936;2024-03-22T00:11:40;4.30;;;0.93;;
74383;SDS011;62824;52.994;-3.936;2024-03-22T00:14:07;3.58;;;0.90;;
74383;SDS011;62824;52.994;-3.936;2024-03-22T00:16:33;2.40;;;0.85;;
74383;SDS011;62824;52.994;-3.936;2024-03-22T00:18:59;2.67;;;0.90;;
74383;SDS011;62824;52.994;-3.936;2024-03-22T00:21:25;2.50;;;0.80;;
74383;SDS011;62824;52.994;-3.936;2024-03-22T00:23:51;11.30;;;1.58;;
74383;SDS011;62824;52.994;-3.936;2024-03-22T00:26:16;3.15;;;1.05;;
74383;SDS011;62824;52.994;-3.936;2024-03-22T00:28:42;3.03;;;1.10;;
74383;SDS011;62824;52.994;-3.936;2024-03-22T00:31:08;3.58;;;1.20;;
74383;SDS011;62824;52.994;-3.936;2024-03-22T00:33:34;2.85;;;0.80;;
74383;SDS011;62824;52.994;-3.936;2024-03-22T00:36:00;3.47;;;1.05;;
74383;SDS011;62824;52.994;-3.936;2024-03-22T00:38:26;4.53;;;1.10;;
74383;SDS011;62824;52.994;-3.936;2024-03-22T00:40:52;2.60;;;1.00;;
74383;SDS011;62824;52.994;-3.936;2024-03-22T00:43:20;5.05;;;1.60;;
74383;SDS011;62824;52.994;-3.936;2024-03-22T00:45:47;4.80;;;1.23;;
74383;SDS011;62824;52.994;-3.936;2024-03-22T00:48:13;2.55;;;1.08;;
74383;SDS011;62824;52.994;-3.936;2024-03-22T00:50:39;4.30;;;1.10;;
74383;SDS011;62824;52.994;-3.936;2024-03-22T00:53:04;2.08;;;1.10;;
74383;SDS011;62824;52.994;-3.936;2024-03-22T00:55:31;3.97;;;1.10;;
74383;SDS011;62824;52.994;-3.936;2024-03-22T00:57:57;4.22;;;1.30;;
74383;SDS011;62824;52.994;-3.936;2024-03-22T01:00:23;5.13;;;1.30;;
74383;SDS011;62824;52.994;-3.936;2024-03-22T01:02:49;5.45;;;1.00;;
74383;SDS011;62824;52.994;-3.936;2024-03-22T01:05:16;3.45;;;1.10;;
74383;SDS011;62824;52.994;-3.936;2024-03-22T01:07:42;3.42;;;0.90;;
74383;SDS011;62824;52.994;-3.936;2024-03-22T01:10:08;7.10;;;1.23;;
74383;SDS011;62824;52.994;-3.936;2024-03-22T01:12:33;2.58;;;0.90;;
74383;SDS011;62824;52.994;-3.936;2024-03-22T01:15:00;3.70;;;1.10;;
74383;SDS011;62824;52.994;-3.936;2024-03-22T01:17:26;3.00;;;1.08;;
74383;SDS011;62824;52.994;-3.936;2024-03-22T01:19:51;4.15;;;1.05;;
74383;SDS011;62824;52.994;-3.936;2024-03-22T01:22:17;3.72;;;1.08;;
74383;SDS011;62824;52.994;-3.936;2024-03-22T01:24:43;2.55;;;1.05;;
74383;SDS011;62824;52.994;-3.936;2024-03-22T01:27:10;3.28;;;0.80;;
74383;SDS011;62824;52.994;-3.936;2024-03-22T01:29:36;6.47;;;1.27;;
74383;SDS011;62824;52.994;-3.936;2024-03-22T01:32:02;4.88;;;1.35;;
74383;SDS011;62824;52.994;-3.936;2024-03-22T01:34:28;2.67;;;1.05;;
74383;SDS011;62824;52.994;-3.936;2024-03-22T01:36:54;5.00;;;1.13;;
74383;SDS011;62824;52.994;-3.936;2024-03-22T01:39:20;5.32;;;1.50;;
74383;SDS011;62824;52.994;-3.936;2024-03-22T01:41:47;5.88;;;1.38;;
74383;SDS011;62824;52.994;-3.936;2024-03-22T01:44:13;6.60;;;1.48;;
74383;SDS011;62824;52.994;-3.936;2024-03-22T01:46:39;3.70;;;1.63;;
74383;SDS011;62824;52.994;-3.936;2024-03-22T01:49:06;5.07;;;1.52;;
74383;SDS011;62824;52.994;-3.936;2024-03-22T01:51:39;8.98;;;1.98;;
74383;SDS011;62824;52.994;-3.936;2024-03-22T01:54:05;10.98;;;2.22;;
74383;SDS011;62824;52.994;-3.936;2024-03-22T01:56:37;3.63;;;1.45;;
74383;SDS011;62824;52.994;-3.936;2024-03-22T01:59:04;9.20;;;2.22;;
74383;SDS011;62824;52.994;-3.936;2024-03-22T02:01:31;9.57;;;2.00;;
74383;SDS011;62824;52.994;-3.936;2024-03-22T02:03:57;9.13;;;1.92;;
74383;SDS011;62824;52.994;-3.936;2024-03-22T02:06:23;8.93;;;2.58;;
74383;SDS011;62824;52.994;-3.936;2024-03-22T02:08:49;9.50;;;2.33;;
74383;SDS011;62824;52.994;-3.936;2024-03-22T02:11:15;13.43;;;2.42;;
74383;SDS011;62824;52.994;-3.936;2024-03-22T02:13:40;6.78;;;1.83;;
74383;SDS011;62824;52.994;-3.936;2024-03-22T02:16:08;6.38;;;1.65;;
74383;SDS011;62824;52.994;-3.936;2024-03-22T02:18:34;9.50;;;2.58;;
74383;SDS011;62824;52.994;-3.936;2024-03-22T02:21:00;7.85;;;2.05;;
74383;SDS011;62824;52.994;-3.936;2024-03-22T02:23:36;17.45;;;2.80;;
74383;SDS011;62824;52.994;-3.936;2024-03-22T02:26:03;13.48;;;2.88;;
74383;SDS011;62824;52.994;-3.936;2024-03-22T02:28:29;10.00;;;2.58;;
74383;SDS011;62824;52.994;-3.936;2024-03-22T02:30:57;12.40;;;2.53;;
74383;SDS011;62824;52.994;-3.936;2024-03-22T02:33:23;7.32;;;1.92;;
74383;SDS011;62824;52.994;-3.936;2024-03-22T02:35:49;14.10;;;2.40;;
74383;SDS011;62824;52.994;-3.936;2024-03-22T02:38:15;19.55;;;4.45;;
74383;SDS011;62824;52.994;-3.936;2024-03-22T02:40:45;9.88;;;1.83;;
74383;SDS011;62824;52.994;-3.936;2024-03-22T02:43:12;10.18;;;2.10;;
74383;SDS011;62824;52.994;-3.936;2024-03-22T02:45:38;8.18;;;2.10;;
74383;SDS011;62824;52.994;-3.936;2024-03-22T02:48:05;12.13;;;2.65;;
74383;SDS011;62824;52.994;-3.936;2024-03-22T02:50:35;15.98;;;3.63;;
74383;SDS011;62824;52.994;-3.936;2024-03-22T02:53:01;9.85;;;2.60;;
74383;SDS011;62824;52.994;-3.936;2024-03-22T02:55:28;12.77;;;2.83;;
74383;SDS011;62824;52.994;-3.936;2024-03-22T02:57:55;11.40;;;2.90;;
74383;SDS011;62824;52.994;-3.936;2024-03-22T03:00:22;13.77;;;3.15;;
74383;SDS011;62824;52.994;-3.936;2024-03-22T03:02:48;18.48;;;3.45;;
74383;SDS011;62824;52.994;-3.936;2024-03-22T03:05:14;12.88;;;3.20;;
74383;SDS011;62824;52.994;-3.936;2024-03-22T03:07:40;10.75;;;2.45;;
74383;SDS011;62824;52.994;-3.936;2024-03-22T03:10:06;13.35;;;2.92;;
74383;SDS011;62824;52.994;-3.936;2024-03-22T03:12:32;14.75;;;3.28;;
74383;SDS011;62824;52.994;-3.936;2024-03-22T03:14:58;13.85;;;2.95;;
74383;SDS011;62824;52.994;-3.936;2024-03-22T03:17:24;15.88;;;3.78;;
74383;SDS011;62824;52.994;-3.936;2024-03-22T03:19:49;22.80;;;3.85;;
74383;SDS011;62824;52.994;-3.936;2024-03-22T03:22:15;14.35;;;2.58;;
74383;SDS011;62824;52.994;-3.936;2024-03-22T03:24:41;17.35;;;3.40;;
74383;SDS011;62824;52.994;-3.936;2024-03-22T03:27:08;14.02;;;3.70;;
74383;SDS011;62824;52.994;-3.936;2024-03-22T03:29:34;17.98;;;3.45;;
74383;SDS011;62824;52.994;-3.936;2024-03-22T03:32:00;10.13;;;2.95;;
74383;SDS011;62824;52.994;-3.936;2024-03-22T03:34:26;19.73;;;4.53;;
74383;SDS011;62824;52.994;-3.936;2024-03-22T03:36:51;13.23;;;3.22;;
74383;SDS011;62824;52.994;-3.936;2024-03-22T03:39:17;18.13;;;3.60;;
74383;SDS011;62824;52.994;-3.936;2024-03-22T03:41:43;10.23;;;2.53;;
74383;SDS011;62824;52.994;-3.936;2024-03-22T03:44:09;14.93;;;3.10;;
74383;SDS011;62824;52.994;-3.936;2024-03-22T03:46:35;15.00;;;3.13;;
74383;SDS011;62824;52.994;-3.936;2024-03-22T03:49:00;15.35;;;3.47;;
74383;SDS011;62824;52.994;-3.936;2024-03-22T03:51:26;15.40;;;3.10;;
74383;SDS011;62824;52.994;-3.936;2024-03-22T03:53:52;14.48;;;3.08;;
74383;SDS011;62824;52.994;-3.936;2024-03-22T03:56:18;17.38;;;3.38;;
74383;SDS011;62824;52.994;-3.936;2024-03-22T03:58:45;16.15;;;3.53;;
74383;SDS011;62824;52.994;-3.936;2024-03-22T04:01:11;17.33;;;2.90;;
74383;SDS011;62824;52.994;-3.936;2024-03-22T04:03:37;13.82;;;2.47;;
74383;SDS011;62824;52.994;-3.936;2024-03-22T04:06:03;9.57;;;2.17;;
74383;SDS011;62824;52.994;-3.936;2024-03-22T04:08:29;13.88;;;2.38;;
74383;SDS011;62824;52.994;-3.936;2024-03-22T04:10:56;13.05;;;2.75;;
74383;SDS011;62824;52.994;-3.936;2024-03-22T04:13:25;12.70;;;2.47;;
74383;SDS011;62824;52.994;-3.936;2024-03-22T04:15:52;10.75;;;2.75;;
74383;SDS011;62824;52.994;-3.936;2024-03-22T04:18:19;12.98;;;2.53;;
74383;SDS011;62824;52.994;-3.936;2024-03-22T04:20:54;13.65;;;2.67;;
74383;SDS011;62824;52.994;-3.936;2024-03-22T04:23:21;12.98;;;2.75;;
74383;SDS011;62824;52.994;-3.936;2024-03-22T04:28:19;13.65;;;2.88;;
74383;SDS011;62824;52.994;-3.936;2024-03-22T04:30:58;15.88;;;3.13;;
74383;SDS011;62824;52.994;-3.936;2024-03-22T04:33:31;16.13;;;2.65;;
74383;SDS011;62824;52.994;-3.936;2024-03-22T04:35:58;12.07;;;2.83;;
74383;SDS011;62824;52.994;-3.936;2024-03-22T04:38:25;18.25;;;3.65;;
74383;SDS011;62824;52.994;-3.936;2024-03-22T04:40:51;13.95;;;3.22;;
74383;SDS011;62824;52.994;-3.936;2024-03-22T04:43:17;14.45;;;2.60;;
74383;SDS011;62824;52.994;-3.936;2024-03-22T04:45:43;12.50;;;3.03;;
74383;SDS011;62824;52.994;-3.936;2024-03-22T04:48:12;15.20;;;3.42;;
74383;SDS011;62824;52.994;-3.936;2024-03-22T04:50:38;12.93;;;3.35;;
74383;SDS011;62824;52.994;-3.936;2024-03-22T04:53:04;14.55;;;3.10;;
74383;SDS011;62824;52.994;-3.936;2024-03-22T04:55:30;12.55;;;2.40;;
74383;SDS011;62824;52.994;-3.936;2024-03-22T04:57:58;14.10;;;3.75;;
74383;SDS011;62824;52.994;-3.936;2024-03-22T05:00:24;16.58;;;2.80;;
74383;SDS011;62824;52.994;-3.936;2024-03-22T05:02:52;13.65;;;2.80;;
74383;SDS011;62824;52.994;-3.936;2024-03-22T05:05:18;13.43;;;2.55;;
74383;SDS011;62824;52.994;-3.936;2024-03-22T05:07:44;21.08;;;4.30;;
74383;SDS011;62824;52.994;-3.936;2024-03-22T05:10:10;14.52;;;3.15;;
74383;SDS011;62824;52.994;-3.936;2024-03-22T05:12:37;14.75;;;2.92;;
74383;SDS011;62824;52.994;-3.936;2024-03-22T05:15:03;13.05;;;2.72;;
74383;SDS011;62824;52.994;-3.936;2024-03-22T05:17:29;11.77;;;3.42;;
74383;SDS011;62824;52.994;-3.936;2024-03-22T05:19:57;10.85;;;2.50;;
74383;SDS011;62824;52.994;-3.936;2024-03-22T05:22:23;17.25;;;3.17;;
74383;SDS011;62824;52.994;-3.936;2024-03-22T05:24:49;18.20;;;2.97;;
74383;SDS011;62824;52.994;-3.936;2024-03-22T05:27:14;11.55;;;2.75;;
74383;SDS011;62824;52.994;-3.936;2024-03-22T05:29:40;16.38;;;4.68;;
74383;SDS011;62824;52.994;-3.936;2024-03-22T05:32:06;22.15;;;3.65;;
74383;SDS011;62824;52.994;-3.936;2024-03-22T05:34:32;16.42;;;3.55;;
74383;SDS011;62824;52.994;-3.936;2024-03-22T05:36:58;21.58;;;3.17;;
74383;SDS011;62824;52.994;-3.936;2024-03-22T05:39:24;14.05;;;3.38;;
74383;SDS011;62824;52.994;-3.936;2024-03-22T05:41:50;19.90;;;3.47;;
74383;SDS011;62824;52.994;-3.936;2024-03-22T05:44:15;14.10;;;2.95;;
74383;SDS011;62824;52.994;-3.936;2024-03-22T05:46:41;14.98;;;3.65;;
74383;SDS011;62824;52.994;-3.936;2024-03-22T05:49:07;19.45;;;3.50;;
74383;SDS011;62824;52.994;-3.936;2024-03-22T05:51:33;18.45;;;3.55;;
74383;SDS011;62824;52.994;-3.936;2024-03-22T05:53:58;19.30;;;3.45;;
74383;SDS011;62824;52.994;-3.936;2024-03-22T05:56:24;11.45;;;2.67;;
74383;SDS011;62824;52.994;-3.936;2024-03-22T05:58:50;16.75;;;2.58;;
74383;SDS011;62824;52.994;-3.936;2024-03-22T06:01:15;15.68;;;3.40;;
74383;SDS011;62824;52.994;-3.936;2024-03-22T06:03:41;14.73;;;2.90;;
74383;SDS011;62824;52.994;-3.936;2024-03-22T06:06:07;16.23;;;3.38;;
74383;SDS011;62824;52.994;-3.936;2024-03-22T06:08:33;14.75;;;3.10;;
74383;SDS011;62824;52.994;-3.936;2024-03-22T06:11:00;12.73;;;2.95;;
74383;SDS011;62824;52.994;-3.936;2024-03-22T06:13:26;12.15;;;2.83;;
74383;SDS011;62824;52.994;-3.936;2024-03-22T06:15:52;12.13;;;2.90;;
74383;SDS011;62824;52.994;-3.936;2024-03-22T06:18:18;11.25;;;3.00;;
74383;SDS011;62824;52.994;-3.936;2024-03-22T06:20:43;12.52;;;3.33;;
74383;SDS011;62824;52.994;-3.936;2024-03-22T06:23:09;10.77;;;2.60;;
74383;SDS011;62824;52.994;-3.936;2024-03-22T06:25:35;16.65;;;2.83;;
74383;SDS011;62824;52.994;-3.936;2024-03-22T06:28:01;5.63;;;2.00;;
74383;SDS011;62824;52.994;-3.936;2024-03-22T06:30:27;10.70;;;2.15;;
74383;SDS011;62824;52.994;-3.936;2024-03-22T06:32:53;10.18;;;2.20;;
74383;SDS011;62824;52.994;-3.936;2024-03-22T06:35:23;10.20;;;2.50;;
74383;SDS011;62824;52.994;-3.936;2024-03-22T06:37:48;14.43;;;3.45;;
74383;SDS011;62824;52.994;-3.936;2024-03-22T06:40:15;12.13;;;2.75;;
74383;SDS011;62824;52.994;-3.936;2024-03-22T06:42:41;12.50;;;2.60;;
74383;SDS011;62824;52.994;-3.936;2024-03-22T06:45:07;6.43;;;1.85;;
74383;SDS011;62824;52.994;-3.936;2024-03-22T06:47:33;8.85;;;2.58;;
74383;SDS011;62824;52.994;-3.936;2024-03-22T06:49:59;10.60;;;2.83;;
74383;SDS011;62824;52.994;-3.936;2024-03-22T06:52:24;11.38;;;2.70;;
74383;SDS011;62824;52.994;-3.936;2024-03-22T06:54:50;21.98;;;3.50;;
74383;SDS011;62824;52.994;-3.936;2024-03-22T06:57:17;12.57;;;3.38;;
74383;SDS011;62824;52.994;-3.936;2024-03-22T06:59:43;17.25;;;2.78;;
74383;SDS011;62824;52.994;-3.936;2024-03-22T07:02:08;17.63;;;2.78;;
74383;SDS011;62824;52.994;-3.936;2024-03-22T07:04:34;12.73;;;2.65;;
74383;SDS011;62824;52.994;-3.936;2024-03-22T07:07:00;12.13;;;2.35;;
74383;SDS011;62824;52.994;-3.936;2024-03-22T07:09:26;16.30;;;3.30;;
74383;SDS011;62824;52.994;-3.936;2024-03-22T07:11:55;13.85;;;3.08;;
74383;SDS011;62824;52.994;-3.936;2024-03-22T07:14:23;14.15;;;3.22;;
74383;SDS011;62824;52.994;-3.936;2024-03-22T07:16:50;9.10;;;1.88;;
74383;SDS011;62824;52.994;-3.936;2024-03-22T07:19:18;14.73;;;2.30;;
74383;SDS011;62824;52.994;-3.936;2024-03-22T07:21:46;9.45;;;2.42;;
74383;SDS011;62824;52.994;-3.936;2024-03-22T07:24:13;6.78;;;1.77;;
74383;SDS011;62824;52.994;-3.936;2024-03-22T07:26:39;8.52;;;2.22;;
74383;SDS011;62824;52.994;-3.936;2024-03-22T07:29:07;10.45;;;1.77;;
74383;SDS011;62824;52.994;-3.936;2024-03-22T07:31:33;9.05;;;1.88;;
74383;SDS011;62824;52.994;-3.936;2024-03-22T07:34:01;5.70;;;1.67;;
74383;SDS011;62824;52.994;-3.936;2024-03-22T07:36:27;10.07;;;2.20;;
74383;SDS011;62824;52.994;-3.936;2024-03-22T07:38:53;12.25;;;3.40;;
74383;SDS011;62824;52.994;-3.936;2024-03-22T07:41:18;7.93;;;2.10;;
74383;SDS011;62824;52.994;-3.936;2024-03-22T07:43:44;13.93;;;2.00;;
74383;SDS011;62824;52.994;-3.936;2024-03-22T07:46:10;6.05;;;2.05;;
74383;SDS011;62824;52.994;-3.936;2024-03-22T07:48:36;7.88;;;1.67;;
74383;SDS011;62824;52.994;-3.936;2024-03-22T07:51:02;4.55;;;1.65;;
74383;SDS011;62824;52.994;-3.936;2024-03-22T07:53:28;8.43;;;2.15;;
74383;SDS011;62824;52.994;-3.936;2024-03-22T07:55:54;10.85;;;2.30;;
74383;SDS011;62824;52.994;-3.936;2024-03-22T07:58:20;8.18;;;2.10;;
74383;SDS011;62824;52.994;-3.936;2024-03-22T08:00:46;9.25;;;2.33;;
74383;SDS011;62824;52.994;-3.936;2024-03-22T08:03:14;6.43;;;1.90;;
74383;SDS011;62824;52.994;-3.936;2024-03-22T08:05:40;10.68;;;1.95;;
74383;SDS011;62824;52.994;-3.936;2024-03-22T08:08:06;13.30;;;2.25;;
74383;SDS011;62824;52.994;-3.936;2024-03-22T08:10:32;13.95;;;1.80;;
74383;SDS011;62824;52.994;-3.936;2024-03-22T08:12:58;12.57;;;2.17;;
74383;SDS011;62824;52.994;-3.936;2024-03-22T08:15:25;10.32;;;1.90;;
74383;SDS011;62824;52.994;-3.936;2024-03-22T08:17:52;5.60;;;1.58;;
74383;SDS011;62824;52.994;-3.936;2024-03-22T08:20:18;8.90;;;1.90;;
74383;SDS011;62824;52.994;-3.936;2024-03-22T08:22:44;10.15;;;2.25;;
74383;SDS011;62824;52.994;-3.936;2024-03-22T08:25:10;8.48;;;2.28;;
74383;SDS011;62824;52.994;-3.936;2024-03-22T08:27:36;12.50;;;2.13;;
74383;SDS011;62824;52.994;-3.936;2024-03-22T08:30:01;14.82;;;2.28;;
74383;SDS011;62824;52.994;-3.936;2024-03-22T08:32:28;6.78;;;1.30;;
74383;SDS011;62824;52.994;-3.936;2024-03-22T08:34:54;19.60;;;2.50;;
74383;SDS011;62824;52.994;-3.936;2024-03-22T08:37:21;7.90;;;1.52;;
74383;SDS011;62824;52.994;-3.936;2024-03-22T08:39:46;11.18;;;1.67;;
74383;SDS011;62824;52.994;-3.936;2024-03-22T08:42:12;6.32;;;1.73;;
74383;SDS011;62824;52.994;-3.936;2024-03-22T08:44:38;9.93;;;1.88;;
74383;SDS011;62824;52.994;-3.936;2024-03-22T08:47:04;7.57;;;2.55;;
74383;SDS011;62824;52.994;-3.936;2024-03-22T08:49:29;14.20;;;2.05;;
74383;SDS011;62824;52.994;-3.936;2024-03-22T08:51:55;9.05;;;1.48;;
74383;SDS011;62824;52.994;-3.936;2024-03-22T08:54:21;8.85;;;2.15;;
74383;SDS011;62824;52.994;-3.936;2024-03-22T08:56:46;6.13;;;1.85;;
74383;SDS011;62824;52.994;-3.936;2024-03-22T08:59:12;10.60;;;1.70;;
74383;SDS011;62824;52.994;-3.936;2024-03-22T09:01:38;11.98;;;2.38;;
74383;SDS011;62824;52.994;-3.936;2024-03-22T09:04:04;7.90;;;1.85;;
74383;SDS011;62824;52.994;-3.936;2024-03-22T09:06:29;6.78;;;1.65;;
74383;SDS011;62824;52.994;-3.936;2024-03-22T09:08:56;9.60;;;1.80;;
74383;SDS011;62824;52.994;-3.936;2024-03-22T09:11:23;11.82;;;2.85;;
74383;SDS011;62824;52.994;-3.936;2024-03-22T09:13:52;12.73;;;2.00;;
74383;SDS011;62824;52.994;-3.936;2024-03-22T09:16:22;8.93;;;1.73;;
74383;SDS011;62824;52.994;-3.936;2024-03-22T09:18:49;11.70;;;2.03;;
74383;SDS011;62824;52.994;-3.936;2024-03-22T09:21:14;9.20;;;1.45;;
74383;SDS011;62824;52.994;-3.936;2024-03-22T09:23:40;7.13;;;1.30;;
74383;SDS011;62824;52.994;-3.936;2024-03-22T09:26:06;4.47;;;1.33;;
74383;SDS011;62824;52.994;-3.936;2024-03-22T09:28:32;9.50;;;1.60;;
74383;SDS011;62824;52.994;-3.936;2024-03-22T09:30:57;8.00;;;1.77;;
74383;SDS011;62824;52.994;-3.936;2024-03-22T09:33:27;5.72;;;1.63;;
74383;SDS011;62824;52.994;-3.936;2024-03-22T09:35:53;9.48;;;1.42;;
74383;SDS011;62824;52.994;-3.936;2024-03-22T09:38:19;7.85;;;1.88;;
74383;SDS011;62824;52.994;-3.936;2024-03-22T09:40:46;7.05;;;1.30;;
74383;SDS011;62824;52.994;-3.936;2024-03-22T09:43:11;3.75;;;1.50;;
74383;SDS011;62824;52.994;-3.936;2024-03-22T09:45:43;10.27;;;2.08;;
74383;SDS011;62824;52.994;-3.936;2024-03-22T09:48:10;7.63;;;1.55;;
74383;SDS011;62824;52.994;-3.936;2024-03-22T09:50:35;7.53;;;1.50;;
74383;SDS011;62824;52.994;-3.936;2024-03-22T09:53:02;6.05;;;1.40;;
74383;SDS011;62824;52.994;-3.936;2024-03-22T09:55:29;4.20;;;1.67;;
74383;SDS011;62824;52.994;-3.936;2024-03-22T09:57:57;5.20;;;1.60;;
74383;SDS011;62824;52.994;-3.936;2024-03-22T10:00:23;8.40;;;1.70;;
74383;SDS011;62824;52.994;-3.936;2024-03-22T10:02:51;6.82;;;1.95;;
74383;SDS011;62824;52.994;-3.936;2024-03-22T10:05:18;9.77;;;2.03;;
74383;SDS011;62824;52.994;-3.936;2024-03-22T10:07:44;9.40;;;1.95;;
74383;SDS011;62824;52.994;-3.936;2024-03-22T10:10:10;8.43;;;1.95;;
74383;SDS011;62824;52.994;-3.936;2024-03-22T10:12:37;8.35;;;1.90;;
74383;SDS011;62824;52.994;-3.936;2024-03-22T10:15:04;6.60;;;1.85;;
74383;SDS011;62824;52.994;-3.936;2024-03-22T10:17:33;10.63;;;2.00;;
74383;SDS011;62824;52.994;-3.936;2024-03-22T10:19:59;6.65;;;1.80;;
74383;SDS011;62824;52.994;-3.936;2024-03-22T10:22:25;10.82;;;1.67;;
74383;SDS011;62824;52.994;-3.936;2024-03-22T10:24:51;9.90;;;1.83;;
74383;SDS011;62824;52.994;-3.936;2024-03-22T10:27:18;7.60;;;2.15;;
74383;SDS011;62824;52.994;-3.936;2024-03-22T10:29:45;8.57;;;1.58;;
74383;SDS011;62824;52.994;-3.936;2024-03-22T10:32:12;6.10;;;1.70;;
74383;SDS011;62824;52.994;-3.936;2024-03-22T10:34:40;7.07;;;1.77;;
74383;SDS011;62824;52.994;-3.936;2024-03-22T10:37:08;10.27;;;1.95;;
74383;SDS011;62824;52.994;-3.936;2024-03-22T10:39:39;7.20;;;1.80;;
74383;SDS011;62824;52.994;-3.936;2024-03-22T10:42:08;8.27;;;2.08;;
74383;SDS011;62824;52.994;-3.936;2024-03-22T10:44:41;6.65;;;2.13;;
74383;SDS011;62824;52.994;-3.936;2024-03-22T10:47:08;13.73;;;2.17;;
74383;SDS011;62824;52.994;-3.936;2024-03-22T10:49:37;9.90;;;1.85;;
74383;SDS011;62824;52.994;-3.936;2024-03-22T10:52:03;8.55;;;2.13;;
74383;SDS011;62824;52.994;-3.936;2024-03-22T10:54:37;7.72;;;2.13;;
74383;SDS011;62824;52.994;-3.936;2024-03-22T10:57:05;11.23;;;1.98;;
74383;SDS011;62824;52.994;-3.936;2024-03-22T10:59:36;9.88;;;2.58;;
74383;SDS011;62824;52.994;-3.936;2024-03-22T11:02:03;8.05;;;2.00;;
74383;SDS011;62824;52.994;-3.936;2024-03-22T11:04:32;7.05;;;1.67;;
74383;SDS011;62824;52.994;-3.936;2024-03-22T11:06:58;10.35;;;2.15;;
74383;SDS011;62824;52.994;-3.936;2024-03-22T11:09:25;8.75;;;2.28;;
74383;SDS011;62824;52.994;-3.936;2024-03-22T11:11:52;12.18;;;1.95;;
74383;SDS011;62824;52.994;-3.936;2024-03-22T11:14:18;6.70;;;1.90;;
74383;SDS011;62824;52.994;-3.936;2024-03-22T11:16:45;6.00;;;2.40;;
74383;SDS011;62824;52.994;-3.936;2024-03-22T11:19:12;11.57;;;2.00;;
74383;SDS011;62824;52.994;-3.936;2024-03-22T11:21:38;11.77;;;2.08;;
74383;SDS011;62824;52.994;-3.936;2024-03-22T11:24:06;7.85;;;1.95;;
74383;SDS011;62824;52.994;-3.936;2024-03-22T11:26:33;10.10;;;2.50;;
74383;SDS011;62824;52.994;-3.936;2024-03-22T11:28:59;7.28;;;1.58;;
74383;SDS011;62824;52.994;-3.936;2024-03-22T11:31:25;7.88;;;2.90;;
74383;SDS011;62824;52.994;-3.936;2024-03-22T11:33:55;8.77;;;2.22;;
74383;SDS011;62824;52.994;-3.936;2024-03-22T11:36:22;11.70;;;1.90;;
74383;SDS011;62824;52.994;-3.936;2024-03-22T11:38:48;7.30;;;1.80;;
74383;SDS011;62824;52.994;-3.936;2024-03-22T11:41:17;6.63;;;1.90;;
74383;SDS011;62824;52.994;-3.936;2024-03-22T11:43:48;10.52;;;2.10;;
74383;SDS011;62824;52.994;-3.936;2024-03-22T11:46:15;8.80;;;3.13;;
74383;SDS011;62824;52.994;-3.936;2024-03-22T11:48:42;10.45;;;2.25;;
74383;SDS011;62824;52.994;-3.936;2024-03-22T11:51:08;7.93;;;1.85;;
74383;SDS011;62824;52.994;-3.936;2024-03-22T11:53:35;6.13;;;1.80;;
74383;SDS011;62824;52.994;-3.936;2024-03-22T11:56:02;7.53;;;2.20;;
74383;SDS011;62824;52.994;-3.936;2024-03-22T11:58:29;8.55;;;1.98;;
74383;SDS011;62824;52.994;-3.936;2024-03-22T12:00:56;12.00;;;2.42;;
74383;SDS011;62824;52.994;-3.936;2024-03-22T12:03:22;8.73;;;1.98;;
74383;SDS011;62824;52.994;-3.936;2024-03-22T12:05:48;10.75;;;2.10;;
74383;SDS011;62824;52.994;-3.936;2024-03-22T12:08:17;8.27;;;2.53;;
74383;SDS011;62824;52.994;-3.936;2024-03-22T12:10:43;6.60;;;1.83;;
74383;SDS011;62824;52.994;-3.936;2024-03-22T12:13:09;3.05;;;1.58;;
74383;SDS011;62824;52.994;-3.936;2024-03-22T12:15:35;11.73;;;3.22;;
74383;SDS011;62824;52.994;-3.936;2024-03-22T12:18:02;7.00;;;1.80;;
74383;SDS011;62824;52.994;-3.936;2024-03-22T12:20:28;8.98;;;2.00;;
74383;SDS011;62824;52.994;-3.936;2024-03-22T12:22:54;7.13;;;1.40;;
74383;SDS011;62824;52.994;-3.936;2024-03-22T12:25:20;6.50;;;2.13;;
74383;SDS011;62824;52.994;-3.936;2024-03-22T12:27:46;6.68;;;1.60;;
74383;SDS011;62824;52.994;-3.936;2024-03-22T12:30:12;8.30;;;1.85;;
74383;SDS011;62824;52.994;-3.936;2024-03-22T12:32:38;6.72;;;1.80;;
74383;SDS011;62824;52.994;-3.936;2024-03-22T12:35:06;6.68;;;1.95;;
74383;SDS011;62824;52.994;-3.936;2024-03-22T12:37:33;5.85;;;1.65;;
74383;SDS011;62824;52.994;-3.936;2024-03-22T12:39:59;6.25;;;2.22;;
74383;SDS011;62824;52.994;-3.936;2024-03-22T12:42:25;7.18;;;2.20;;
74383;SDS011;62824;52.994;-3.936;2024-03-22T12:44:51;16.83;;;9.02;;
74383;SDS011;62824;52.994;-3.936;2024-03-22T12:47:17;8.27;;;1.85;;
74383;SDS011;62824;52.994;-3.936;2024-03-22T12:49:43;4.80;;;2.20;;
74383;SDS011;62824;52.994;-3.936;2024-03-22T12:52:09;4.95;;;1.70;;
74383;SDS011;62824;52.994;-3.936;2024-03-22T12:54:35;7.70;;;1.83;;
74383;SDS011;62824;52.994;-3.936;2024-03-22T12:57:01;5.80;;;1.60;;
74383;SDS011;62824;52.994;-3.936;2024-03-22T12:59:27;9.00;;;1.80;;
74383;SDS011;62824;52.994;-3.936;2024-03-22T13:01:53;7.95;;;1.85;;
74383;SDS011;62824;52.994;-3.936;2024-03-22T13:04:19;4.38;;;1.73;;
74383;SDS011;62824;52.994;-3.936;2024-03-22T13:06:45;4.35;;;1.42;;
74383;SDS011;62824;52.994;-3.936;2024-03-22T13:09:10;9.32;;;2.33;;
74383;SDS011;62824;52.994;-3.936;2024-03-22T13:11:37;7.88;;;2.10;;
74383;SDS011;62824;52.994;-3.936;2024-03-22T13:14:03;7.60;;;1.90;;
74383;SDS011;62824;52.994;-3.936;2024-03-22T13:16:29;10.23;;;2.20;;
74383;SDS011;62824;52.994;-3.936;2024-03-22T13:18:55;4.32;;;1.85;;
74383;SDS011;62824;52.994;-3.936;2024-03-22T13:21:20;7.20;;;1.90;;
74383;SDS011;62824;52.994;-3.936;2024-03-22T13:23:46;7.75;;;2.10;;
74383;SDS011;62824;52.994;-3.936;2024-03-22T13:26:12;6.95;;;1.73;;
74383;SDS011;62824;52.994;-3.936;2024-03-22T13:28:37;8.15;;;2.33;;
74383;SDS011;62824;52.994;-3.936;2024-03-22T13:31:04;7.15;;;1.58;;
74383;SDS011;62824;52.994;-3.936;2024-03-22T13:33:33;9.70;;;1.90;;
74383;SDS011;62824;52.994;-3.936;2024-03-22T13:36:00;16.48;;;2.63;;
74383;SDS011;62824;52.994;-3.936;2024-03-22T13:38:26;6.93;;;1.73;;
74383;SDS011;62824;52.994;-3.936;2024-03-22T13:40:55;7.03;;;2.10;;
74383;SDS011;62824;52.994;-3.936;2024-03-22T13:43:22;8.38;;;2.08;;
74383;SDS011;62824;52.994;-3.936;2024-03-22T13:45:51;9.73;;;1.73;;
74383;SDS011;62824;52.994;-3.936;2024-03-22T13:48:22;4.63;;;1.70;;
74383;SDS011;62824;52.994;-3.936;2024-03-22T13:50:52;10.65;;;2.17;;
74383;SDS011;62824;52.994;-3.936;2024-03-22T13:53:21;8.63;;;1.98;;
74383;SDS011;62824;52.994;-3.936;2024-03-22T13:55:48;5.10;;;1.77;;
74383;SDS011;62824;52.994;-3.936;2024-03-22T13:58:20;8.98;;;1.77;;
74383;SDS011;62824;52.994;-3.936;2024-03-22T14:00:49;9.15;;;2.15;;
74383;SDS011;62824;52.994;-3.936;2024-03-22T14:03:17;6.40;;;1.85;;
74383;SDS011;62824;52.994;-3.936;2024-03-22T14:05:43;6.40;;;1.58;;
74383;SDS011;62824;52.994;-3.936;2024-03-22T14:08:09;6.28;;;1.60;;
74383;SDS011;62824;52.994;-3.936;2024-03-22T14:10:35;6.00;;;1.50;;
74383;SDS011;62824;52.994;-3.936;2024-03-22T14:13:01;5.50;;;1.98;;
74383;SDS011;62824;52.994;-3.936;2024-03-22T14:15:27;5.50;;;1.80;;
74383;SDS011;62824;52.994;-3.936;2024-03-22T14:17:56;4.13;;;1.27;;
74383;SDS011;62824;52.994;-3.936;2024-03-22T14:20:23;11.77;;;2.00;;
74383;SDS011;62824;52.994;-3.936;2024-03-22T14:22:50;8.57;;;2.17;;
74383;SDS011;62824;52.994;-3.936;2024-03-22T14:25:16;5.80;;;1.58;;
74383;SDS011;62824;52.994;-3.936;2024-03-22T14:27:42;4.13;;;1.60;;